Current Weather

Keetmanshoop

Keetmanshoop, Namibia (FYKT)

Report from: Sunday, May 19, 2024 10:00 AM CAT
Current time: Sunday, May 19, 2024 10:25 AM CAT

Nearby weather – Weather history – Daily summaries
Weather forecast

Temperature24.0°C (75.2°F)
Dew point1.0°C (33.8°F)
Winds 12 kts (6.2 m/s, 13.8 mph) North-Northeast (20°)
Altimeter30.27 in.Hg (1025 mB)
Relative humidity22 %
Density altitude755 ft. (230 m)
Remarks Fully automated report
Raw dataFYKT 190800Z AUTO 02012KT //// // ////// 24/01 Q1025
An error has occurred. This application may no longer respond until reloaded. Reload 🗙